createdAt,value
2023-04-01T00:01:51.786Z,12.10
2023-04-01T00:06:53.920Z,12.10
2023-04-01T00:11:57.474Z,12.10
2023-04-01T00:16:59.619Z,12.10
2023-04-01T00:22:01.790Z,12.10
2023-04-01T00:27:05.833Z,12.10
2023-04-01T00:32:08.036Z,12.10
2023-04-01T00:37:10.958Z,12.10
2023-04-01T00:42:14.665Z,12.10
2023-04-01T00:47:16.973Z,12.10
2023-04-01T00:52:23.629Z,12.10
2023-04-01T00:57:32.417Z,12.10
2023-04-01T01:02:35.697Z,12.10
2023-04-01T01:07:46.178Z,12.10
2023-04-01T01:12:58.497Z,12.10
2023-04-01T01:18:07.702Z,12.10
2023-04-01T01:23:33.336Z,12.10
2023-04-01T01:28:54.049Z,12.00
2023-04-01T01:34:12.847Z,12.00
2023-04-01T01:39:17.955Z,12.00
2023-04-01T01:44:22.355Z,12.00
2023-04-01T01:49:26.052Z,12.00
2023-04-01T01:54:29.684Z,12.00
2023-04-01T01:59:34.639Z,12.00
2023-04-01T02:04:41.571Z,12.00
2023-04-01T02:09:45.246Z,12.00
2023-04-01T02:14:53.370Z,12.00
2023-04-01T02:20:00.015Z,12.00
2023-04-01T02:25:08.156Z,12.10
2023-04-01T02:30:11.525Z,12.10
2023-04-01T02:35:16.454Z,12.10
2023-04-01T02:40:20.531Z,12.10
2023-04-01T02:45:22.602Z,12.10
2023-04-01T02:50:24.687Z,12.10
2023-04-01T02:55:28.547Z,12.10
2023-04-01T03:00:30.721Z,12.20
2023-04-01T03:05:33.072Z,12.20
2023-04-01T03:10:36.861Z,12.20
2023-04-01T03:15:39.019Z,12.20
2023-04-01T03:20:41.140Z,12.20
2023-04-01T03:25:44.845Z,12.10
2023-04-01T03:30:46.988Z,12.20
2023-04-01T03:35:49.167Z,12.20
2023-04-01T03:40:52.717Z,12.20
2023-04-01T03:45:55.118Z,12.20
2023-04-01T03:50:57.249Z,12.20
2023-04-01T03:56:05.391Z,12.20
2023-04-01T04:01:15.946Z,12.20
2023-04-01T04:06:19.878Z,12.20
2023-04-01T04:11:24.102Z,12.20
2023-04-01T04:16:26.458Z,12.20
2023-04-01T04:21:28.899Z,12.20
2023-04-01T04:26:32.449Z,12.20
2023-04-01T04:31:34.788Z,12.30
2023-04-01T04:36:37.019Z,12.20
2023-04-01T04:41:41.666Z,12.20
2023-04-01T04:46:43.954Z,12.30
2023-04-01T04:51:46.370Z,12.30
2023-04-01T04:56:52.190Z,12.30
2023-04-01T05:01:54.334Z,12.20
2023-04-01T05:06:56.506Z,12.20
2023-04-01T05:12:00.175Z,12.20
2023-04-01T05:17:02.386Z,12.20
2023-04-01T05:22:04.760Z,12.30
2023-04-01T05:27:08.406Z,12.30
2023-04-01T05:32:10.615Z,12.20
2023-04-01T05:37:12.734Z,12.20
2023-04-01T05:42:16.381Z,12.20
2023-04-01T05:47:18.526Z,12.30
2023-04-01T05:52:20.784Z,12.30
2023-04-01T05:57:24.378Z,12.30
2023-04-01T06:02:26.712Z,12.30
2023-04-01T06:07:30.221Z,12.30
2023-04-01T06:12:46.617Z,12.40
2023-04-01T06:18:02.892Z,12.40
2023-04-01T06:23:30.282Z,12.30
2023-04-01T06:29:04.574Z,12.40
2023-04-01T06:34:21.655Z,12.50
2023-04-01T06:39:43.564Z,12.50
2023-04-01T06:45:01.197Z,12.40
2023-04-01T06:50:12.700Z,12.40
2023-04-01T06:55:27.053Z,12.50
2023-04-01T07:00:33.808Z,12.60
2023-04-01T07:05:36.511Z,12.60
2023-04-01T07:10:47.915Z,12.60
2023-04-01T07:16:07.095Z,12.70
2023-04-01T07:21:18.380Z,12.70
2023-04-01T07:26:23.624Z,12.80
2023-04-01T07:31:43.194Z,12.80
2023-04-01T07:36:51.345Z,12.90
2023-04-01T07:41:59.910Z,12.90
2023-04-01T07:47:34.158Z,12.90
2023-04-01T07:52:44.306Z,12.70
2023-04-01T07:57:53.780Z,12.50
2023-04-01T08:03:17.153Z,12.30
2023-04-01T08:08:31.290Z,12.10
2023-04-01T08:13:41.084Z,11.90
2023-04-01T08:18:53.385Z,11.70
2023-04-01T08:23:58.668Z,11.60
2023-04-01T08:29:05.402Z,11.40
2023-04-01T08:34:15.745Z,11.30
2023-04-01T08:39:24.978Z,11.20
2023-04-01T08:44:53.389Z,11.20
2023-04-01T08:50:36.124Z,11.20
2023-04-01T08:56:01.638Z,11.10
2023-04-01T09:01:18.945Z,11.10
2023-04-01T09:06:38.945Z,11.00
2023-04-01T09:12:00.165Z,11.00
2023-04-01T09:17:47.674Z,11.00
2023-04-01T09:23:10.676Z,11.00
2023-04-01T09:28:19.785Z,10.90
2023-04-01T09:33:47.984Z,10.90
2023-04-01T09:38:58.504Z,10.90
2023-04-01T09:44:04.282Z,10.90
2023-04-01T09:49:32.756Z,10.90
2023-04-01T09:54:56.326Z,10.90
2023-04-01T10:00:21.979Z,11.00
2023-04-01T10:05:54.198Z,11.00
2023-04-01T10:11:29.553Z,10.90
2023-04-01T10:17:10.012Z,10.90
2023-04-01T10:22:52.369Z,10.90
2023-04-01T10:28:22.190Z,10.80
2023-04-01T10:34:02.784Z,10.80
2023-04-01T10:39:34.003Z,10.90
2023-04-01T10:45:17.901Z,10.90
2023-04-01T10:50:48.601Z,10.90
2023-04-01T10:56:34.573Z,11.00
2023-04-01T11:02:10.837Z,11.10
2023-04-01T11:08:02.754Z,11.10
2023-04-01T11:13:46.161Z,11.20
2023-04-01T11:19:20.008Z,11.20
2023-04-01T11:24:44.080Z,11.30
2023-04-01T11:30:01.125Z,11.40
2023-04-01T11:35:30.112Z,11.40
2023-04-01T11:40:41.061Z,11.40
2023-04-01T11:45:50.734Z,11.40
2023-04-01T11:51:11.258Z,11.40
2023-04-01T11:56:33.113Z,11.40
2023-04-01T12:01:45.072Z,11.20
2023-04-01T12:06:52.615Z,11.20
2023-04-01T12:12:10.155Z,11.30
2023-04-01T12:17:26.307Z,11.30
2023-04-01T12:22:44.522Z,11.30
2023-04-01T12:27:58.554Z,11.30
2023-04-01T12:33:17.128Z,11.30
2023-04-01T12:38:31.551Z,11.30
2023-04-01T12:44:09.882Z,11.30
2023-04-01T12:49:49.148Z,11.20
2023-04-01T12:55:23.065Z,11.10
2023-04-01T13:00:44.913Z,11.10
2023-04-01T13:06:26.314Z,11.20
2023-04-01T13:11:41.289Z,11.20
2023-04-01T13:16:51.754Z,11.20
2023-04-01T13:22:05.959Z,11.10
2023-04-01T13:27:15.767Z,11.00
2023-04-01T13:32:40.708Z,11.00
2023-04-01T13:37:58.666Z,11.00
2023-04-01T13:43:05.223Z,11.00
2023-04-01T13:48:29.589Z,11.00
2023-04-01T13:54:01.696Z,10.90
2023-04-01T13:59:40.578Z,10.80
2023-04-01T14:05:10.650Z,10.80
2023-04-01T14:10:24.214Z,10.70
2023-04-01T14:15:54.182Z,10.70
2023-04-01T14:21:27.915Z,10.70
2023-04-01T14:27:03.534Z,10.70
2023-04-01T14:32:17.510Z,10.60
2023-04-01T14:37:57.669Z,10.50
2023-04-01T14:43:23.118Z,10.50
2023-04-01T14:48:36.220Z,10.40
2023-04-01T14:53:44.283Z,10.20
2023-04-01T14:58:48.194Z,10.10
2023-04-01T15:04:03.491Z,10.00
2023-04-01T15:09:13.828Z,9.90
2023-04-01T15:14:38.811Z,9.90
2023-04-01T15:19:58.648Z,9.80
2023-04-01T15:25:22.533Z,9.70
2023-04-01T15:30:38.936Z,9.50
2023-04-01T15:35:49.101Z,9.50
2023-04-01T15:40:57.817Z,9.50
2023-04-01T15:46:16.582Z,9.40
2023-04-01T15:51:37.794Z,9.40
2023-04-01T15:56:54.878Z,9.40
2023-04-01T16:02:00.047Z,9.40
2023-04-01T16:07:17.310Z,9.40
2023-04-01T16:12:26.854Z,9.30
2023-04-01T16:17:54.167Z,9.30
2023-04-01T16:23:03.313Z,9.30
2023-04-01T16:28:20.796Z,9.20
2023-04-01T16:33:29.183Z,9.20
2023-04-01T16:38:40.895Z,9.20
2023-04-01T16:43:46.273Z,9.20
2023-04-01T16:49:01.457Z,9.20
2023-04-01T16:54:13.382Z,9.20
2023-04-01T16:59:22.573Z,9.10
2023-04-01T17:04:35.894Z,9.10
2023-04-01T17:09:57.417Z,9.10
2023-04-01T17:15:08.796Z,9.00
2023-04-01T17:20:26.142Z,9.00
2023-04-01T17:25:41.183Z,8.90
2023-04-01T17:30:54.303Z,8.90
2023-04-01T17:36:00.932Z,8.80
2023-04-01T17:41:11.942Z,8.70
2023-04-01T17:46:33.039Z,8.70
2023-04-01T17:51:41.174Z,8.70
2023-04-01T17:56:59.852Z,8.60
2023-04-01T18:02:12.990Z,8.50
2023-04-01T18:07:50.614Z,8.50
2023-04-01T18:13:16.182Z,8.50
2023-04-01T18:18:36.728Z,8.40
2023-04-01T18:23:52.029Z,8.40
2023-04-01T18:29:04.953Z,8.40
2023-04-01T18:34:13.980Z,8.30
2023-04-01T18:39:19.880Z,8.20
2023-04-01T18:44:32.238Z,8.10
2023-04-01T18:49:42.996Z,8.00
2023-04-01T18:54:51.010Z,8.00
2023-04-01T19:00:04.554Z,7.90
2023-04-01T19:05:13.497Z,7.90
2023-04-01T19:10:21.690Z,7.90
2023-04-01T19:15:40.106Z,7.90
2023-04-01T19:20:48.316Z,7.80
2023-04-01T19:25:52.504Z,7.80
2023-04-01T19:31:01.085Z,7.80
2023-04-01T19:36:12.443Z,7.80
2023-04-01T19:41:38.815Z,7.80
2023-04-01T19:46:46.931Z,7.80
2023-04-01T19:51:57.036Z,7.70
2023-04-01T19:57:10.337Z,7.70
2023-04-01T20:02:45.641Z,7.70
2023-04-01T20:07:56.065Z,7.70
2023-04-01T20:13:06.140Z,7.70
2023-04-01T20:18:17.179Z,7.60
2023-04-01T20:23:34.441Z,7.60
2023-04-01T20:28:44.581Z,7.60
2023-04-01T20:34:13.129Z,7.50
2023-04-01T20:39:51.054Z,7.50
2023-04-01T20:45:08.286Z,7.50
2023-04-01T20:50:22.366Z,7.40
2023-04-01T20:55:54.347Z,7.40
2023-04-01T21:01:08.437Z,7.30
2023-04-01T21:06:44.539Z,7.30
2023-04-01T21:11:56.280Z,7.20
2023-04-01T21:17:08.811Z,7.10
2023-04-01T21:22:42.150Z,7.10
2023-04-01T21:28:01.873Z,7.00
2023-04-01T21:33:22.123Z,7.00
2023-04-01T21:38:41.301Z,6.90
2023-04-01T21:44:19.453Z,6.90
2023-04-01T21:49:49.491Z,6.90
2023-04-01T21:55:25.640Z,6.80
2023-04-01T22:00:33.116Z,6.70
2023-04-01T22:05:41.597Z,6.60
2023-04-01T22:10:53.484Z,6.50
2023-04-01T22:16:06.037Z,6.40
2023-04-01T22:21:14.180Z,6.20
2023-04-01T22:26:25.396Z,6.10
2023-04-01T22:31:31.738Z,6.00
2023-04-01T22:36:45.963Z,6.00
2023-04-01T22:42:02.122Z,5.90
2023-04-01T22:47:09.312Z,5.80
2023-04-01T22:52:21.411Z,5.70
2023-04-01T22:57:41.075Z,5.70
2023-04-01T23:02:48.383Z,5.60
2023-04-01T23:08:01.416Z,5.50
2023-04-01T23:13:06.464Z,5.50
2023-04-01T23:18:19.736Z,5.40
2023-04-01T23:23:32.052Z,5.30
2023-04-01T23:28:45.553Z,5.30
2023-04-01T23:33:55.197Z,5.30
2023-04-01T23:38:58.839Z,5.20
2023-04-01T23:44:06.308Z,5.20
2023-04-01T23:49:14.282Z,5.10
2023-04-01T23:54:24.159Z,5.10
2023-04-01T23:59:31.719Z,5.00
